Time;durP1;ratioP1;P1;durP2;ratioP2;P2;SDS_P1;SDS_P2;PMS_P1;PMS_P2;Temp;Humidity;BMP_temperature;BMP_pressure;BME280_temperature;BME280_humidity;BME280_pressure;Samples;Min_cycle;Max_cycle;Signal;HPM_P1;HPM_P2
2022/11/11 00:01:00;;;;;;;9.13;6.35;;;5.70;90.70;;;;;;5070892;28;20204;-66
2022/11/11 00:03:28;;;;;;;11.35;7.65;;;5.60;90.40;;;;;;5070547;28;20189;-66
2022/11/11 00:05:55;;;;;;;9.90;7.13;;;5.60;90.20;;;;;;5070281;28;20291;-67
2022/11/11 00:08:23;;;;;;;10.77;6.25;;;5.60;89.90;;;;;;5070456;28;20525;-66
2022/11/11 00:10:52;;;;;;;11.98;7.68;;;5.60;89.90;;;;;;5070782;28;20225;-66
2022/11/11 00:13:19;;;;;;;14.60;7.68;;;5.60;89.30;;;;;;5070144;28;20247;-66
2022/11/11 00:15:46;;;;;;;14.90;9.00;;;5.60;88.50;;;;;;5070272;28;20631;-66
2022/11/11 00:26:32;;;;;;;12.18;7.40;;;5.40;88.10;;;;;;5070715;28;20284;-66
2022/11/11 00:28:59;;;;;;;6.45;4.90;;;5.40;88.30;;;;;;5069572;28;20574;-66
2022/11/11 00:31:26;;;;;;;11.32;5.13;;;5.40;88.20;;;;;;5070179;28;20214;-66
2022/11/11 00:33:54;;;;;;;7.07;5.72;;;5.30;87.80;;;;;;5070150;28;20190;-66
2022/11/11 00:36:20;;;;;;;11.18;6.53;;;5.30;87.90;;;;;;5070584;28;20185;-66
2022/11/11 00:38:48;;;;;;;9.55;6.50;;;5.20;88.90;;;;;;5070127;28;20190;-66
2022/11/11 00:41:17;;;;;;;11.85;7.20;;;5.00;90.20;;;;;;5071384;28;20204;-66
2022/11/11 00:43:46;;;;;;;7.40;5.28;;;5.00;90.10;;;;;;5070754;28;20273;-66
2022/11/11 00:51:41;;;;;;;8.30;4.75;;;4.90;90.30;;;;;;5049339;28;20209;-67
2022/11/11 00:54:08;;;;;;;7.78;5.35;;;4.90;90.40;;;;;;5072158;28;20589;-66
2022/11/11 00:56:36;;;;;;;5.70;4.95;;;4.90;90.30;;;;;;5076194;28;20211;-66
2022/11/11 00:59:06;;;;;;;6.45;4.18;;;4.90;90.40;;;;;;5075382;28;20182;-66
2022/11/11 01:01:33;;;;;;;5.85;4.78;;;4.90;90.50;;;;;;5075879;28;20197;-67
2022/11/11 01:04:01;;;;;;;6.03;3.75;;;5.00;90.60;;;;;;5075378;28;20177;-67
2022/11/11 01:06:28;;;;;;;5.40;4.90;;;4.90;90.20;;;;;;5075957;28;20223;-67
2022/11/11 01:08:55;;;;;;;4.45;3.15;;;4.80;90.30;;;;;;5075420;28;20178;-66
2022/11/11 01:11:24;;;;;;;6.18;3.80;;;4.70;90.30;;;;;;5075764;28;20217;-66
2022/11/11 01:13:51;;;;;;;3.85;2.60;;;4.70;90.10;;;;;;5075494;28;20182;-66
2022/11/11 01:16:22;;;;;;;3.95;2.20;;;4.80;90.40;;;;;;5075605;28;20189;-66
2022/11/11 01:18:50;;;;;;;5.97;3.75;;;4.80;90.80;;;;;;5075095;28;20182;-66
2022/11/11 01:21:19;;;;;;;4.85;2.85;;;4.80;91.10;;;;;;5075597;28;20570;-66
2022/11/11 01:23:47;;;;;;;5.30;3.70;;;4.90;91.30;;;;;;5074528;28;20194;-67
2022/11/11 01:26:17;;;;;;;6.28;5.10;;;4.90;91.40;;;;;;5075386;28;20174;-66
2022/11/11 01:28:44;;;;;;;6.90;4.78;;;5.00;91.40;;;;;;5075069;28;20213;-68
2022/11/11 01:31:14;;;;;;;6.45;4.95;;;5.00;91.30;;;;;;5074622;28;20551;-67
2022/11/11 01:33:44;;;;;;;6.90;4.80;;;5.00;90.80;;;;;;5074893;28;20186;-67
2022/11/11 01:36:14;;;;;;;7.15;4.97;;;5.00;90.10;;;;;;5075280;28;20590;-67
2022/11/11 01:38:44;;;;;;;4.95;4.10;;;4.90;89.10;;;;;;5074954;28;20583;-68
2022/11/11 01:43:58;;;;;;;8.30;4.45;;;4.70;88.00;;;;;;5057634;28;20208;-67
2022/11/11 01:46:31;;;;;;;7.43;4.88;;;4.70;88.00;;;;;;5074575;28;20189;-67
2022/11/11 01:49:19;;;;;;;17.02;6.00;;;4.60;88.70;;;;;;5055188;28;20190;-67
2022/11/11 01:51:52;;;;;;;5.75;4.10;;;4.70;89.10;;;;;;5058139;28;20220;-67
2022/11/11 01:54:26;;;;;;;7.88;5.50;;;4.60;88.90;;;;;;5074660;28;20663;-67
2022/11/11 01:57:01;;;;;;;5.65;3.63;;;4.60;89.20;;;;;;5074507;28;20178;-67
2022/11/11 01:59:31;;;;;;;4.75;3.70;;;4.60;90.00;;;;;;5074690;28;20170;-66
2022/11/11 02:02:00;;;;;;;5.35;4.20;;;4.60;90.30;;;;;;5074454;28;20189;-67
2022/11/11 02:07:14;;;;;;;6.53;3.53;;;4.60;89.40;;;;;;5073767;28;20311;-67
2022/11/11 02:09:46;;;;;;;6.22;3.90;;;4.50;89.00;;;;;;5074597;28;20680;-66
2022/11/11 02:15:00;;;;;;;7.00;4.35;;;4.50;89.30;;;;;;5074083;28;20251;-68
2022/11/11 02:17:30;;;;;;;5.60;3.65;;;4.40;90.10;;;;;;5054542;28;20193;-66
2022/11/11 02:20:01;;;;;;;5.97;3.80;;;4.30;90.70;;;;;;5072956;28;20192;-66
2022/11/11 02:22:38;;;;;;;6.32;3.65;;;4.20;91.00;;;;;;5074566;28;20182;-66
2022/11/11 02:25:10;;;;;;;3.65;2.15;;;4.20;91.30;;;;;;5074147;28;20212;-66
2022/11/11 02:27:40;;;;;;;5.43;3.15;;;4.20;91.60;;;;;;5074277;28;20225;-67
2022/11/11 02:30:14;;;;;;;3.30;2.63;;;4.10;91.60;;;;;;5073573;28;20190;-67
2022/11/11 02:32:43;;;;;;;5.13;3.40;;;4.10;91.60;;;;;;5074379;28;20227;-68
2022/11/11 02:35:15;;;;;;;5.45;3.63;;;4.10;91.90;;;;;;5073831;28;20182;-67
2022/11/11 02:37:45;;;;;;;4.38;3.20;;;4.10;92.10;;;;;;5074077;28;20185;-68
2022/11/11 02:40:18;;;;;;;5.20;2.88;;;4.10;92.00;;;;;;5073274;28;20182;-68
2022/11/11 02:42:45;;;;;;;4.50;3.00;;;4.10;91.70;;;;;;5074108;28;20178;-67
2022/11/11 02:45:13;;;;;;;4.45;2.88;;;4.10;91.50;;;;;;5073838;28;20185;-66
2022/11/11 02:47:40;;;;;;;4.28;3.45;;;4.00;91.60;;;;;;5074156;28;20196;-66
2022/11/11 02:50:08;;;;;;;5.07;3.30;;;4.00;91.70;;;;;;5073046;28;20193;-67
2022/11/11 02:52:35;;;;;;;4.25;3.55;;;4.10;91.40;;;;;;5073781;28;20214;-66
2022/11/11 02:55:03;;;;;;;4.40;3.05;;;4.00;91.60;;;;;;5073005;28;20186;-66
2022/11/11 02:57:31;;;;;;;4.50;3.00;;;4.10;91.70;;;;;;5073418;28;20181;-67
2022/11/11 03:00:01;;;;;;;6.65;2.65;;;4.10;91.90;;;;;;5073245;28;20182;-68
2022/11/11 03:02:29;;;;;;;3.25;2.30;;;4.20;92.00;;;;;;5053407;28;20222;-66
2022/11/11 03:04:57;;;;;;;3.33;2.33;;;4.30;92.10;;;;;;5053623;28;20193;-67
2022/11/11 03:07:25;;;;;;;3.78;2.40;;;4.30;91.20;;;;;;5072543;28;20190;-67
2022/11/11 03:09:52;;;;;;;3.60;2.45;;;4.20;90.90;;;;;;5073299;28;20281;-66
2022/11/11 03:12:19;;;;;;;3.88;2.92;;;4.20;91.20;;;;;;5072782;28;20710;-67
2022/11/11 03:14:48;;;;;;;5.13;2.75;;;4.20;91.70;;;;;;5073132;28;20190;-66
2022/11/11 03:22:40;;;;;;;3.20;2.65;;;4.30;92.10;;;;;;5072839;28;20201;-67
2022/11/11 03:27:52;;;;;;;3.90;2.75;;;4.20;91.90;;;;;;5053037;28;20299;-68
2022/11/11 03:30:21;;;;;;;4.07;2.75;;;4.30;91.80;;;;;;5057606;28;20269;-67
2022/11/11 03:32:48;;;;;;;4.32;3.65;;;4.30;91.80;;;;;;5072881;28;20300;-69
2022/11/11 03:35:15;;;;;;;4.30;2.45;;;4.30;91.30;;;;;;5071839;28;20184;-68
2022/11/11 03:40:27;;;;;;;3.67;3.20;;;4.20;91.00;;;;;;5072596;28;20238;-68
2022/11/11 03:42:54;;;;;;;7.65;3.85;;;4.20;91.00;;;;;;5073202;28;20208;-66
2022/11/11 03:45:23;;;;;;;4.47;3.20;;;4.10;90.90;;;;;;5072583;28;20242;-65
2022/11/11 03:47:50;;;;;;;5.05;3.40;;;4.10;90.70;;;;;;5072968;28;20224;-68
2022/11/11 03:50:17;;;;;;;4.30;2.83;;;4.10;90.50;;;;;;5071995;28;20186;-67
2022/11/11 03:52:44;;;;;;;4.65;3.17;;;4.10;90.50;;;;;;5072606;28;20214;-66
2022/11/11 03:55:11;;;;;;;3.92;2.63;;;4.00;90.40;;;;;;5072498;28;20702;-66
2022/11/11 03:57:44;;;;;;;9.23;2.78;;;4.00;90.40;;;;;;5073140;28;20538;-66
2022/11/11 04:00:12;;;;;;;5.85;3.67;;;4.00;90.40;;;;;;5071500;28;20182;-66
2022/11/11 04:10:58;;;;;;;4.30;3.05;;;3.80;90.10;;;;;;5072387;28;20342;-66
2022/11/11 04:16:10;;;;;;;4.30;2.70;;;3.70;90.50;;;;;;5072230;28;20192;-67
2022/11/11 04:26:56;;;;;;;8.55;7.03;;;3.30;92.20;;;;;;5072084;28;20708;-66
2022/11/11 04:29:28;;;;;;;7.32;5.85;;;3.20;92.40;;;;;;5071993;28;20218;-66
2022/11/11 04:34:44;;;;;;;4.07;3.22;;;3.20;92.20;;;;;;5072128;28;20642;-68
2022/11/11 04:37:12;;;;;;;5.05;3.38;;;3.10;92.00;;;;;;5052376;28;20657;-66
2022/11/11 04:42:24;;;;;;;5.50;3.88;;;3.20;92.30;;;;;;5072390;28;20197;-67
2022/11/11 04:47:37;;;;;;;6.97;4.40;;;3.10;95.20;;;;;;5072387;28;20201;-67
2022/11/11 04:50:06;;;;;;;12.18;3.80;;;3.20;95.60;;;;;;5071822;28;20186;-67
2022/11/11 04:52:33;;;;;;;5.70;3.80;;;3.20;96.00;;;;;;5072190;28;20248;-67
2022/11/11 04:57:47;;;;;;;4.55;3.60;;;3.10;94.90;;;;;;5072315;28;20192;-66
2022/11/11 05:00:17;;;;;;;6.47;4.90;;;3.10;95.20;;;;;;5072034;28;20182;-66
2022/11/11 05:08:54;;;;;;;3.92;2.88;;;3.30;95.80;;;;;;5071822;28;20643;-67
2022/11/11 05:11:04;;;;;;;5.35;3.90;;;3.30;95.10;;;;;;5071928;28;20200;-66
2022/11/11 05:21:53;;;;;;;4.53;4.05;;;3.50;94.30;;;;;;5051962;28;20274;-67
2022/11/11 05:27:05;;;;;;;10.40;4.60;;;3.60;94.50;;;;;;5072134;28;20189;-67
2022/11/11 05:29:32;;;;;;;7.03;4.88;;;3.60;94.10;;;;;;5071795;28;20287;-67
2022/11/11 05:31:59;;;;;;;6.82;4.28;;;3.60;93.80;;;;;;5071786;28;21018;-67
2022/11/11 05:34:26;;;;;;;7.88;4.97;;;3.50;93.50;;;;;;5071328;28;20702;-67
2022/11/11 05:36:55;;;;;;;8.55;5.28;;;3.60;93.50;;;;;;5071856;28;20188;-67
2022/11/11 05:39:22;;;;;;;7.72;4.80;;;3.50;93.30;;;;;;5071469;28;20599;-67
2022/11/11 05:41:49;;;;;;;4.45;3.67;;;3.60;93.50;;;;;;5072660;28;20205;-67
2022/11/11 05:44:16;;;;;;;5.95;4.90;;;3.60;92.80;;;;;;5074792;28;20189;-67
2022/11/11 05:46:44;;;;;;;13.05;5.93;;;3.50;91.60;;;;;;5075523;28;20200;-67
2022/11/11 05:49:17;;;;;;;11.75;6.70;;;3.40;91.70;;;;;;5075344;28;20255;-67
2022/11/11 05:51:44;;;;;;;9.68;6.03;;;3.40;91.90;;;;;;5075246;28;20659;-67
2022/11/11 05:54:13;;;;;;;5.57;4.00;;;3.30;92.30;;;;;;5074495;28;20182;-67
2022/11/11 05:56:41;;;;;;;5.38;3.67;;;3.30;92.30;;;;;;5055377;28;20268;-66
2022/11/11 05:59:08;;;;;;;5.00;3.75;;;3.30;91.80;;;;;;5062819;28;20188;-67
2022/11/11 06:01:36;;;;;;;6.03;4.05;;;3.40;91.30;;;;;;5075335;28;20189;-67
2022/11/11 06:04:04;;;;;;;5.15;3.80;;;3.30;91.00;;;;;;5074588;28;20186;-67
2022/11/11 06:06:31;;;;;;;6.45;5.30;;;3.30;91.10;;;;;;5074787;28;20256;-67
2022/11/11 06:08:58;;;;;;;7.00;5.30;;;3.30;91.20;;;;;;5074737;28;20588;-67
2022/11/11 06:11:27;;;;;;;7.85;6.60;;;3.20;91.10;;;;;;5074088;28;20293;-66
2022/11/11 06:13:55;;;;;;;8.93;6.57;;;3.10;91.30;;;;;;5074441;28;20178;-66
2022/11/11 06:16:23;;;;;;;9.00;6.43;;;3.20;91.40;;;;;;5074073;28;20632;-66
2022/11/11 06:18:51;;;;;;;6.75;5.60;;;3.20;91.50;;;;;;5074288;28;20659;-67
2022/11/11 06:21:18;;;;;;;7.28;5.05;;;3.30;91.80;;;;;;5074796;28;20244;-67
2022/11/11 06:23:46;;;;;;;9.05;4.55;;;3.30;91.90;;;;;;5074521;28;20192;-67
2022/11/11 06:26:12;;;;;;;5.22;3.88;;;3.20;92.20;;;;;;5074243;28;20228;-66
2022/11/11 06:28:42;;;;;;;6.45;4.20;;;3.20;92.20;;;;;;5074172;28;20225;-68
2022/11/11 06:31:11;;;;;;;6.88;4.82;;;3.30;92.30;;;;;;5061204;28;20667;-67
2022/11/11 06:33:39;;;;;;;6.45;3.10;;;3.30;92.10;;;;;;5074585;28;20315;-68
2022/11/11 06:36:07;;;;;;;4.72;3.20;;;3.40;92.10;;;;;;5073930;28;20189;-67
2022/11/11 06:38:34;;;;;;;4.50;3.38;;;3.50;92.40;;;;;;5074362;28;20243;-67
2022/11/11 06:41:01;;;;;;;4.90;4.22;;;3.60;92.30;;;;;;5072671;28;20189;-67
2022/11/11 06:43:29;;;;;;;11.43;5.35;;;3.70;91.70;;;;;;5073456;28;20242;-67
2022/11/11 06:45:58;;;;;;;5.97;4.90;;;3.90;91.80;;;;;;5074155;28;20689;-67
2022/11/11 06:48:27;;;;;;;6.57;4.65;;;4.00;91.90;;;;;;5074443;28;20273;-67
2022/11/11 06:50:55;;;;;;;7.10;4.32;;;4.30;91.50;;;;;;5073610;28;20185;-66
2022/11/11 06:53:23;;;;;;;6.70;4.88;;;4.50;92.20;;;;;;5073301;28;20304;-67
2022/11/11 06:55:53;;;;;;;8.45;4.55;;;4.80;92.40;;;;;;5074093;28;20189;-68
2022/11/11 06:58:24;;;;;;;6.40;4.82;;;4.90;91.00;;;;;;5073380;28;20314;-67
2022/11/11 07:00:51;;;;;;;9.07;6.07;;;5.10;90.90;;;;;;5073673;28;20182;-67
2022/11/11 07:03:21;;;;;;;7.35;4.90;;;5.40;90.60;;;;;;5073158;28;20651;-67
2022/11/11 07:05:49;;;;;;;5.50;4.40;;;5.60;90.50;;;;;;5073903;28;20188;-67
2022/11/11 07:08:18;;;;;;;8.63;6.63;;;5.80;90.00;;;;;;5073547;28;20537;-68
2022/11/11 07:10:47;;;;;;;8.23;7.05;;;6.00;88.60;;;;;;5074014;28;20575;-67
2022/11/11 07:13:15;;;;;;;8.55;6.40;;;6.10;87.60;;;;;;5073392;28;20210;-67
2022/11/11 07:15:43;;;;;;;7.75;5.57;;;6.30;87.40;;;;;;5073833;28;20628;-68
2022/11/11 07:18:12;;;;;;;5.53;4.57;;;6.50;86.20;;;;;;5072964;28;20178;-67
2022/11/11 07:20:41;;;;;;;6.15;3.97;;;6.50;86.00;;;;;;5073639;28;20201;-66
2022/11/11 07:23:09;;;;;;;7.32;6.50;;;6.60;85.10;;;;;;5073025;28;20186;-67
2022/11/11 07:25:36;;;;;;;8.00;6.05;;;6.60;84.20;;;;;;5073699;28;20247;-67
2022/11/11 07:28:03;;;;;;;7.28;5.80;;;6.60;83.90;;;;;;5072930;28;20228;-67
2022/11/11 07:30:31;;;;;;;7.35;4.80;;;6.70;83.90;;;;;;5073464;28;20705;-67
2022/11/11 07:32:58;;;;;;;8.18;6.03;;;6.70;83.00;;;;;;5072772;28;20681;-67
2022/11/11 07:35:25;;;;;;;10.00;7.38;;;6.70;82.40;;;;;;5073507;28;20192;-67
2022/11/11 07:37:54;;;;;;;8.50;6.65;;;6.80;82.40;;;;;;5072907;28;20192;-66
2022/11/11 07:40:22;;;;;;;8.60;5.70;;;6.90;83.00;;;;;;5073408;28;20181;-67
2022/11/11 07:42:49;;;;;;;6.70;5.70;;;7.10;82.10;;;;;;5072742;28;20190;-67
2022/11/11 07:45:17;;;;;;;15.38;9.00;;;7.20;82.30;;;;;;5073046;28;20289;-67
2022/11/11 07:47:45;;;;;;;7.43;5.28;;;7.50;82.20;;;;;;5072664;28;20185;-68
2022/11/11 07:50:12;;;;;;;5.03;4.03;;;7.70;81.00;;;;;;5069179;28;20579;-68
2022/11/11 07:52:40;;;;;;;5.32;4.15;;;7.90;80.80;;;;;;5070167;28;20244;-67
2022/11/11 07:55:10;;;;;;;4.50;3.80;;;8.00;80.50;;;;;;5067152;28;20593;-67
2022/11/11 07:57:37;;;;;;;8.57;5.55;;;8.10;80.50;;;;;;5070478;28;20204;-67
2022/11/11 08:00:06;;;;;;;5.15;4.13;;;8.30;80.80;;;;;;5071004;28;20182;-67
2022/11/11 08:02:34;;;;;;;11.82;6.95;;;8.50;80.60;;;;;;5070633;28;20193;-67
2022/11/11 08:05:02;;;;;;;11.68;9.38;;;8.70;79.20;;;;;;5070605;28;20189;-69
2022/11/11 08:07:29;;;;;;;10.70;7.88;;;8.80;79.20;;;;;;5070692;28;20272;-67
2022/11/11 08:09:56;;;;;;;10.43;7.35;;;9.00;76.30;;;;;;5069609;28;20644;-67
2022/11/11 08:15:29;;;;;;;8.75;6.20;;;9.20;76.50;;;;;;5048006;28;20205;-66
2022/11/11 08:17:56;;;;;;;6.90;5.93;;;9.40;75.60;;;;;;5048851;28;20526;-67
2022/11/11 08:20:24;;;;;;;9.07;5.45;;;9.60;74.90;;;;;;5056918;28;20924;-67
2022/11/11 08:22:54;;;;;;;7.28;5.90;;;9.80;74.10;;;;;;5070773;28;20221;-69
2022/11/11 08:25:22;;;;;;;8.00;5.20;;;10.00;72.80;;;;;;5070459;28;20181;-67
2022/11/11 08:27:57;;;;;;;8.68;6.60;;;10.20;72.60;;;;;;5070282;28;20592;-68
2022/11/11 08:30:24;;;;;;;7.13;5.63;;;10.50;71.20;;;;;;5070684;28;20267;-67
2022/11/11 08:32:58;;;;;;;10.02;5.32;;;10.80;71.50;;;;;;5070185;28;20213;-67
2022/11/11 08:35:25;;;;;;;6.15;4.40;;;11.10;71.30;;;;;;5066497;28;20213;-67
2022/11/11 08:37:53;;;;;;;5.55;4.90;;;11.50;69.80;;;;;;5070907;28;20233;-67
2022/11/11 08:40:21;;;;;;;7.57;6.32;;;11.80;68.70;;;;;;5070107;28;20698;-67
2022/11/11 08:42:51;;;;;;;7.47;5.88;;;12.10;67.70;;;;;;5069094;28;20186;-68
2022/11/11 08:45:18;;;;;;;10.50;8.07;;;12.40;66.20;;;;;;5070148;28;20216;-68
2022/11/11 08:47:45;;;;;;;9.15;8.10;;;12.50;64.00;;;;;;5070711;28;20251;-68
2022/11/11 08:50:13;;;;;;;9.25;6.95;;;12.50;65.00;;;;;;5070192;28;20188;-68
2022/11/11 08:52:46;;;;;;;7.95;6.32;;;12.50;62.80;;;;;;5070362;28;20231;-68
2022/11/11 08:55:13;;;;;;;7.60;6.80;;;12.60;63.70;;;;;;5070522;28;20182;-67
2022/11/11 08:57:41;;;;;;;5.47;4.85;;;12.80;64.00;;;;;;5070165;28;20636;-68
2022/11/11 09:00:12;;;;;;;6.10;4.68;;;13.20;62.70;;;;;;5070253;28;20217;-68
2022/11/11 09:02:40;;;;;;;5.00;4.03;;;13.40;63.00;;;;;;5070561;28;20202;-67
2022/11/11 09:05:07;;;;;;;5.77;4.37;;;14.00;61.50;;;;;;5070066;28;20267;-67
2022/11/11 09:07:35;;;;;;;5.63;5.03;;;14.50;60.20;;;;;;5069425;28;20495;-68
2022/11/11 09:10:02;;;;;;;8.00;5.60;;;14.90;59.20;;;;;;5070463;28;20483;-68
2022/11/11 09:12:30;;;;;;;8.10;4.77;;;15.20;57.20;;;;;;5070043;28;20466;-68
2022/11/11 09:14:57;;;;;;;5.57;4.93;;;15.20;56.40;;;;;;5070273;28;20920;-68
2022/11/11 09:17:26;;;;;;;6.10;5.40;;;15.20;55.70;;;;;;5071623;28;20467;-67
2022/11/11 09:19:54;;;;;;;7.80;6.97;;;15.20;56.90;;;;;;5074002;28;20431;-67
2022/11/11 09:22:21;;;;;;;7.93;5.37;;;15.30;56.50;;;;;;5073925;28;20443;-67
2022/11/11 09:24:49;;;;;;;7.20;5.40;;;15.40;55.40;;;;;;5069290;28;20458;-68
2022/11/11 09:27:16;;;;;;;4.23;2.63;;;15.50;56.10;;;;;;5072759;28;20439;-67
2022/11/11 09:29:43;;;;;;;3.63;2.20;;;15.70;55.70;;;;;;5073251;28;20439;-67
2022/11/11 09:32:11;;;;;;;4.63;2.57;;;16.00;54.60;;;;;;5073241;28;20910;-67
2022/11/11 09:34:40;;;;;;;3.83;3.10;;;16.10;55.80;;;;;;5072650;28;20840;-68
2022/11/11 09:37:07;;;;;;;10.17;2.90;;;16.40;55.40;;;;;;5072912;28;20440;-67
2022/11/11 09:39:35;;;;;;;5.70;2.43;;;16.70;55.00;;;;;;5072585;28;20432;-67
2022/11/11 09:42:11;;;;;;;3.43;2.90;;;17.10;53.00;;;;;;5072871;28;20439;-68
2022/11/11 09:45:01;;;;;;;4.43;3.30;;;17.10;53.20;;;;;;5073319;28;20442;-68
2022/11/11 09:47:36;;;;;;;4.50;3.33;;;17.40;53.90;;;;;;5069172;28;20440;-68
2022/11/11 09:50:10;;;;;;;4.50;2.97;;;17.70;51.70;;;;;;5072672;28;20428;-69
2022/11/11 09:52:50;;;;;;;5.90;4.27;;;17.90;53.30;;;;;;5073107;28;20505;-68
2022/11/11 09:55:22;;;;;;;3.87;2.93;;;18.40;52.20;;;;;;5068074;28;20438;-68
2022/11/11 09:57:56;;;;;;;5.27;2.87;;;18.50;49.20;;;;;;5070325;28;20493;-68
2022/11/11 10:00:27;;;;;;;2.53;1.77;;;18.50;50.70;;;;;;5071066;28;20462;-67
2022/11/11 10:02:58;;;;;;;5.90;2.70;;;18.60;49.00;;;;;;5072938;28;20439;-67
2022/11/11 10:05:32;;;;;;;3.50;2.43;;;18.50;49.20;;;;;;5069537;28;20463;-68
2022/11/11 10:08:04;;;;;;;4.20;2.03;;;18.40;48.90;;;;;;5072707;28;20439;-67
2022/11/11 10:10:40;;;;;;;2.50;1.90;;;18.40;48.90;;;;;;5074884;28;20444;-67
2022/11/11 10:13:15;;;;;;;3.40;1.93;;;18.70;49.30;;;;;;5073156;28;20569;-68
2022/11/11 10:15:56;;;;;;;6.27;2.33;;;18.90;49.00;;;;;;5069835;28;20440;-68
2022/11/11 10:18:36;;;;;;;5.40;2.90;;;19.00;48.40;;;;;;5069060;28;20809;-67
2022/11/11 10:21:14;;;;;;;3.90;2.10;;;19.20;48.30;;;;;;5070477;28;20440;-67
2022/11/11 10:23:47;;;;;;;3.73;2.30;;;19.40;48.30;;;;;;5071267;28;20518;-68
2022/11/11 10:26:20;;;;;;;3.67;2.23;;;19.50;47.40;;;;;;5075906;28;20447;-67
2022/11/11 10:28:51;;;;;;;7.33;2.43;;;19.90;47.30;;;;;;5071623;28;20470;-69
2022/11/11 10:31:22;;;;;;;4.93;3.30;;;20.30;47.60;;;;;;5068736;28;20452;-68
2022/11/11 10:33:54;;;;;;;4.23;2.93;;;21.40;47.20;;;;;;5069904;28;20475;-68
2022/11/11 10:36:25;;;;;;;3.23;2.00;;;22.60;44.10;;;;;;5071769;28;20489;-68
2022/11/11 10:38:58;;;;;;;7.30;2.30;;;23.70;41.50;;;;;;5068634;28;20471;-68
2022/11/11 10:41:33;;;;;;;4.47;2.13;;;24.70;40.10;;;;;;5075054;28;20436;-68
2022/11/11 10:44:01;;;;;;;4.70;2.00;;;25.10;37.90;;;;;;5068219;28;20444;-68
2022/11/11 10:46:39;;;;;;;4.17;2.20;;;25.10;36.80;;;;;;5075389;28;20805;-68
2022/11/11 10:49:11;;;;;;;3.50;2.03;;;24.70;36.40;;;;;;5074535;28;21070;-68
2022/11/11 10:51:48;;;;;;;6.23;1.60;;;24.40;36.80;;;;;;5071503;28;20493;-70
2022/11/11 10:54:21;;;;;;;4.10;2.37;;;24.20;35.70;;;;;;5072163;28;20780;-68
2022/11/11 10:56:54;;;;;;;3.50;2.00;;;24.40;35.90;;;;;;5072156;28;20448;-66
2022/11/11 10:59:26;;;;;;;3.27;1.97;;;24.90;34.80;;;;;;5072194;28;20432;-67
2022/11/11 11:01:58;;;;;;;4.70;1.53;;;25.50;32.60;;;;;;5071225;28;20454;-67
2022/11/11 11:04:58;;;;;;;4.10;2.70;;;26.50;32.30;;;;;;5065548;28;20638;-69
2022/11/11 11:07:29;;;;;;;6.23;3.80;;;28.10;30.90;;;;;;5065148;28;20439;-67
2022/11/11 11:10:02;;;;;;;5.50;3.80;;;29.00;29.40;;;;;;5065101;28;20517;-67
2022/11/11 11:12:38;;;;;;;3.87;2.00;;;29.70;28.50;;;;;;5065450;28;20436;-68
2022/11/11 11:15:11;;;;;;;4.77;2.53;;;30.40;28.30;;;;;;5063293;28;20451;-67
2022/11/11 11:17:45;;;;;;;3.60;2.20;;;30.60;26.70;;;;;;5064151;28;20438;-67
2022/11/11 11:20:20;;;;;;;4.10;2.30;;;30.60;25.90;;;;;;5063432;28;20531;-67
2022/11/11 11:22:54;;;;;;;2.90;1.67;;;30.20;26.10;;;;;;5066779;28;21048;-67
2022/11/11 11:25:23;;;;;;;3.60;2.33;;;29.90;26.50;;;;;;5056636;28;20447;-68
2022/11/11 11:27:54;;;;;;;2.83;1.60;;;29.60;26.90;;;;;;5065573;28;20791;-68
2022/11/11 11:30:32;;;;;;;3.00;2.03;;;29.80;25.80;;;;;;5066077;28;20444;-67
2022/11/11 11:34:01;;;;;;;;;;;;;;;;;;;;;
2022/11/11 11:36:31;;;;;;;4.17;2.00;;;29.80;25.80;;;;;;5061962;28;20782;-70
2022/11/11 11:39:00;;;;;;;4.70;2.40;;;29.60;26.00;;;;;;5064212;28;20922;-68
2022/11/11 11:41:38;;;;;;;2.70;1.73;;;29.70;24.80;;;;;;5064771;28;20444;-68
2022/11/11 11:44:28;;;;;;;2.23;1.13;;;29.50;25.00;;;;;;5064918;28;20491;-68
2022/11/11 11:47:10;;;;;;;4.10;1.87;;;29.60;24.20;;;;;;5063071;28;20470;-68
2022/11/11 11:49:59;;;;;;;3.83;2.30;;;29.30;24.60;;;;;;5062045;28;20443;-68
2022/11/11 11:52:39;;;;;;;3.50;2.47;;;28.80;24.90;;;;;;5064059;28;20523;-67
2022/11/11 11:55:12;;;;;;;3.30;1.63;;;29.00;25.00;;;;;;5064139;28;20452;-66
2022/11/11 11:57:51;;;;;;;3.67;2.00;;;29.10;25.10;;;;;;5065231;28;20525;-66
2022/11/11 12:00:21;;;;;;;3.07;2.07;;;29.50;25.50;;;;;;5062885;28;20450;-67
2022/11/11 12:03:28;;;;;;;5.53;4.60;;;30.10;24.90;;;;;;5064043;28;20482;-67
2022/11/11 12:06:02;;;;;;;3.23;2.10;;;30.40;24.20;;;;;;5062191;28;20455;-67
2022/11/11 12:08:48;;;;;;;2.97;2.10;;;30.50;24.10;;;;;;5064070;28;20447;-68
2022/11/11 12:11:24;;;;;;;4.33;3.87;;;31.10;23.50;;;;;;5064498;28;20443;-68
2022/11/11 12:14:08;;;;;;;3.90;2.60;;;30.90;23.40;;;;;;5060478;28;20528;-68
2022/11/11 12:16:43;;;;;;;3.33;2.07;;;31.00;23.20;;;;;;5049912;28;20928;-68
2022/11/11 12:19:29;;;;;;;3.53;1.90;;;30.60;22.70;;;;;;5050196;28;20531;-68
2022/11/11 12:22:04;;;;;;;3.63;2.50;;;30.20;24.00;;;;;;5051289;28;20444;-68
2022/11/11 12:24:45;;;;;;;3.53;2.60;;;30.20;24.40;;;;;;5050722;28;20550;-68
2022/11/11 12:27:23;;;;;;;3.13;2.07;;;29.90;24.40;;;;;;5050276;28;20449;-69
2022/11/11 12:30:03;;;;;;;2.47;1.50;;;29.40;24.70;;;;;;5051027;28;20455;-68
2022/11/11 12:32:59;;;;;;;4.00;1.80;;;29.00;25.60;;;;;;5049754;28;20448;-67
2022/11/11 12:35:34;;;;;;;2.83;1.70;;;28.20;26.00;;;;;;5049711;28;20895;-68
2022/11/11 12:38:29;;;;;;;4.30;1.90;;;27.50;27.10;;;;;;5050143;28;20455;-68
2022/11/11 12:41:08;;;;;;;5.93;1.97;;;26.70;28.10;;;;;;5047156;28;20931;-67
2022/11/11 12:43:43;;;;;;;2.97;1.83;;;26.00;29.10;;;;;;5050002;28;20487;-67
2022/11/11 12:46:25;;;;;;;2.80;1.60;;;25.40;30.00;;;;;;5049354;28;21018;-67
2022/11/11 12:49:02;;;;;;;3.90;2.30;;;25.10;30.60;;;;;;5050275;28;20445;-68
2022/11/11 12:51:56;;;;;;;2.87;1.57;;;24.80;31.10;;;;;;5049530;28;20440;-68
2022/11/11 12:54:31;;;;;;;3.63;1.70;;;24.50;31.60;;;;;;5050251;28;20441;-67
2022/11/11 12:57:11;;;;;;;4.37;2.20;;;24.20;32.40;;;;;;5043037;28;20521;-67
2022/11/11 12:59:55;;;;;;;2.63;1.67;;;24.00;33.40;;;;;;5041801;28;20829;-67
2022/11/11 13:02:43;;;;;;;2.77;1.70;;;24.00;33.70;;;;;;5049947;28;20452;-67
2022/11/11 13:05:16;;;;;;;3.37;1.50;;;23.70;34.10;;;;;;5048187;28;20476;-68
2022/11/11 13:08:15;;;;;;;2.87;1.57;;;23.70;34.30;;;;;;5049467;28;20472;-68
2022/11/11 13:10:50;;;;;;;3.17;2.00;;;23.60;34.20;;;;;;5050070;28;20528;-68
2022/11/11 13:13:48;;;;;;;3.63;2.00;;;23.60;34.60;;;;;;5051507;28;20786;-68
2022/11/11 13:16:24;;;;;;;2.53;1.50;;;23.20;35.60;;;;;;5050589;28;20457;-68
2022/11/11 13:18:57;;;;;;;4.30;2.00;;;22.80;35.60;;;;;;5051741;28;20453;-66
2022/11/11 13:21:30;;;;;;;3.20;1.90;;;22.20;37.10;;;;;;5051278;28;20441;-68
2022/11/11 13:23:57;;;;;;;3.67;2.23;;;21.90;37.70;;;;;;5051145;28;20615;-67
2022/11/11 13:26:30;;;;;;;7.30;2.37;;;21.60;38.10;;;;;;5050595;28;20818;-67
2022/11/11 13:29:17;;;;;;;3.57;1.83;;;21.30;38.90;;;;;;5051375;28;20444;-68
2022/11/11 13:31:46;;;;;;;4.90;2.97;;;21.00;39.80;;;;;;5050909;28;20476;-67
2022/11/11 13:34:15;;;;;;;3.23;1.67;;;20.60;41.00;;;;;;5049106;28;20460;-67
2022/11/11 13:36:47;;;;;;;3.40;2.20;;;20.40;41.50;;;;;;5050272;28;20452;-67
2022/11/11 13:39:26;;;;;;;3.60;3.03;;;20.10;42.70;;;;;;5051125;28;20800;-67
2022/11/11 13:41:57;;;;;;;6.17;3.47;;;19.80;42.70;;;;;;5050189;28;20933;-66
2022/11/11 13:44:28;;;;;;;4.23;2.43;;;19.70;43.20;;;;;;5050791;28;20575;-68
2022/11/11 13:47:03;;;;;;;3.23;2.10;;;19.30;43.20;;;;;;5047611;28;20803;-66
2022/11/11 13:49:34;;;;;;;3.07;1.97;;;19.10;43.80;;;;;;5050592;28;20448;-66
2022/11/11 13:52:03;;;;;;;2.80;2.07;;;18.90;45.10;;;;;;5051140;28;20449;-66
2022/11/11 13:54:32;;;;;;;4.77;3.10;;;18.80;45.40;;;;;;5050843;28;20449;-67
2022/11/11 13:57:08;;;;;;;3.13;2.30;;;18.70;45.90;;;;;;5050769;28;20953;-66
2022/11/11 13:59:40;;;;;;;4.30;2.33;;;18.60;46.50;;;;;;5051024;28;20524;-66
2022/11/11 14:02:27;;;;;;;3.33;2.23;;;18.60;46.00;;;;;;5050296;28;20488;-66
2022/11/11 14:05:30;;;;;;;3.73;1.77;;;18.50;45.50;;;;;;5048655;28;20986;-66
2022/11/11 14:07:58;;;;;;;4.50;1.97;;;18.20;46.00;;;;;;5049414;28;20431;-66
2022/11/11 14:10:52;;;;;;;4.03;2.20;;;18.10;46.30;;;;;;5050367;28;20491;-66
2022/11/11 14:13:41;;;;;;;5.70;3.40;;;17.90;46.80;;;;;;5050773;28;20436;-66
2022/11/11 14:16:33;;;;;;;3.27;1.87;;;17.60;47.30;;;;;;5042985;28;20445;-67
2022/11/11 14:19:13;;;;;;;3.43;2.23;;;17.30;48.10;;;;;;5049922;28;20441;-66
2022/11/11 14:21:53;;;;;;;3.30;2.30;;;17.00;48.10;;;;;;5050504;28;20449;-66
2022/11/11 14:24:25;;;;;;;6.63;3.77;;;16.80;48.90;;;;;;5047734;28;20986;-66
2022/11/11 14:26:59;;;;;;;10.70;5.60;;;16.60;49.80;;;;;;5049807;28;20471;-66
2022/11/11 14:29:34;;;;;;;15.33;10.87;;;16.40;51.00;;;;;;5050339;28;20510;-66
2022/11/11 14:32:33;;;;;;;25.07;17.60;;;16.20;51.40;;;;;;5050396;28;20449;-66
2022/11/11 14:35:20;;;;;;;8.43;5.33;;;15.90;52.30;;;;;;5048877;28;20460;-66
2022/11/11 14:38:19;;;;;;;6.63;4.63;;;15.70;53.30;;;;;;5047371;28;20437;-68
2022/11/11 14:40:46;;;;;;;5.03;4.03;;;15.50;53.90;;;;;;5049136;28;20843;-67